Mark Parker

Recruteur en chef - Brighton
9 Juil 2028
Dimanche
Processus

Personnalité

Adaptabilité (19) Ambition (18) Controverse (16) Loyauté (1) Pression (4) Professionnalisme (18) Sportivité (1) Tempérament (16)

Profil

Style d'entraînement Démocratique
Diplôme National A
Détermination 11
Gestion des joueurs 13
Motivation 5
Discipline 12
Satisfaction professionnelle
100%
Fatigue
0%
Rôle Recruteur en chef
Salaire 61.1K p/s
Contrat 14.03.2030

Performance

Comportement Bon
Efficacité de l'entraînement
48%
Développement des joueurs
35%
Prévention des blessures
55%
Mise en place tactique
35%

Événements récents

A évalué un joueur maintenant
A participé à une réunion de recrutement maintenant
A participé à une réunion de recrutement maintenant
A participé à une réunion de recrutement maintenant
A participé à une réunion de recrutement 7j
A participé à une réunion de recrutement 7j
A participé à une réunion de recrutement 7j
A présenté un dossier au conseil 7j

Suivi en cours

153
Joueur Club Statut Capacité Confiance Observé Dernière observation Dernier vote
Ayden Heaven Portsmouth Actif 145 / 147 40% 3 03.07.2028 -
Reggie Walsh Chelsea Actif 119 / 122 40% 2 03.07.2028 -
Gonzalo Fulham Rapport prêt 156 / 153 76% 1 03.07.2028 -
Josh Stephenson Brentford Actif 120 / 121 40% 1 03.07.2028 -
Carlos Vicente Birmingham Rapport prêt 150 / 144 76% 1 06.06.2028 -
Brayann Pereira West Bromwich Albion Perdu 131 / 125 76% 1 03.06.2028 -
Christos Mouzakitis Hull City Actif 137 / 152 40% 5 02.06.2028 -
Ryan McAidoo Oldham Athletic Négociation 125 / 132 40% 9 02.06.2028 -
Endrick Boca Juniors Actif 152 / 158 40% 3 02.06.2028 -
Trey Nyoni Rotherham United Actif 139 / 156 40% 8 01.06.2028 -
Souza Tottenham Actif 133 / 136 40% 1 01.06.2028 -
Shea Lacey Crystal Palace Actif 130 / 132 40% 4 30.05.2028 -
Rodrigo Mora AC Milan Actif 139 / 140 40% 4 30.05.2028 -
Alphadjo Cissé Lecce Actif 136 / 139 40% 7 30.05.2028 -
Henrique Carmo Sochi Actif 128 / 143 40% 10 28.05.2028 -
Ibrahim Fullah Charlton Athletic Actif 122 / 130 40% 1 28.05.2028 -
Mateus Mané Burnley Actif 146 / 153 40% 12 27.05.2028 -
Babis Kostoulas Oxford United Actif 146 / 146 40% 8 27.05.2028 -
Jorthy Mokio ADO Den Haag Actif 132 / 140 40% 4 27.05.2028 -
Wassim Bouziane AZ Actif 129 / 134 40% 2 24.05.2028 -
Gabe Forsyth Colchester United Actif 112 / 120 40% 1 24.05.2028 -
Ryan Oné Sheffield United Actif 121 / 129 40% 2 23.05.2028 -
Jan Bürger Northampton Town Actif 121 / 123 40% 18 21.05.2028 -
Giovanni Leoni Lincoln City Actif 140 / 141 40% 4 21.05.2028 -
Eduardo Fernandes Benfica Actif 120 / 126 40% 5 21.05.2028 -
Daniel Banjaqui Benfica Actif 123 / 134 40% 8 21.05.2028 -
Dmitry Pestryakov Krasnodar Actif 117 / 119 40% 3 20.05.2028 -
Rio Ngumoha Plymouth Argyle Actif 148 / 139 40% 10 18.05.2028 -
Honest Ahanor Atalanta Actif 137 / 136 40% 10 18.05.2028 -
Giovanni Cantizano Fulham Actif 117 / 125 40% 3 16.05.2028 -
Gabriel Mec Feirense Actif 131 / 135 40% 5 14.05.2028 -
Kerim Alajbegović Modena Actif 131 / 133 40% 8 13.05.2028 -
Oskar Pietuszewski Estrela da Amadora Actif 131 / 139 40% 4 13.05.2028 -
Josh Nichols Oldham Athletic Actif 115 / 134 40% 6 11.05.2028 -
Igor Tyjon Barrow AFC Actif 111 / 119 40% 4 10.05.2028 -
Omar Khedr Gillingham Actif 108 / 120 40% 3 10.05.2028 -
André Miranda Porto Actif 115 / 121 40% 4 08.05.2028 -
Adam Aznou Everton Actif 122 / 128 40% 2 08.05.2028 -
Romelle Donovan Brentford Actif 131 / 141 40% 7 06.05.2028 -
Luca Williams-Barnett Walsall Actif 130 / 128 40% 4 04.05.2028 -
Ryan Kavuma-McQueen Accrington Stanley Actif 126 / 124 40% 6 29.04.2028 -
Josh Acheampong Everton Actif 141 / 143 40% 8 28.04.2028 -
Josh King Newcastle United Actif 141 / 156 40% 11 27.04.2028 -
Sindre Walle Egeli Udinese Actif 134 / 149 40% 17 25.04.2028 -
Eli Junior Kroupi Bournemouth Actif 150 / 145 40% 6 25.04.2028 -
İsak Vural Audace Cerignola Actif 121 / 133 40% 2 23.04.2028 -
Jake Evans Crewe Alexandra Actif 109 / 125 40% 5 20.04.2028 -
Tobías Ramírez River Plate Actif 126 / 130 40% 1 20.04.2028 -
Sidiki Chérif Newcastle United Actif 134 / 131 40% 1 17.04.2028 -
Ronan Kpakio AC Milan Actif 122 / 126 40% 6 16.04.2028 -
Itumeleng Jali Spezia Actif 113 / 122 40% 2 14.04.2028 -
Miguel Figueiredo Benfica Actif 121 / 132 40% 2 14.04.2028 -
Gustavo Albarracín Alavés Actif 116 / 131 40% 1 14.04.2028 -
Victor Hernandez Santa Fe Actif 129 / 126 40% 3 13.04.2028 -
Jason Witsel PSV Actif 124 / 133 40% 1 13.04.2028 -
Oscar Schwartau Norwich City Actif 123 / 140 40% 5 11.04.2028 -
Bade Aluko Leicester City Actif 128 / 124 40% 3 10.04.2028 -
Thiago Silvero Vélez Actif 130 / 122 40% 1 09.04.2028 -
Noahkai Banks FC Augsburg Perdu 143 / 144 40% 1 04.04.2028 -
Kieran Morgan Queens Park Rangers Actif 123 / 125 40% 1 08.03.2028 -
Nejc Viher NK Maribor Actif 117 / 120 40% 1 06.03.2028 -
Luka Vušković Tottenham Actif 148 / 146 40% 1 06.03.2028 -
Archie Gray Southampton Actif 158 / 150 40% 4 28.02.2028 -
Esquerdinha Notts County Actif 114 / 120 40% 2 19.02.2028 -
Bazoumana Touré Newcastle United Actif 140 / 145 40% 7 08.02.2028 -
Alex Verón Vélez Actif 107 / 126 40% 1 25.01.2028 -
Kostantis Tzolakis Brighton Actif 136 / 139 67% 1 24.01.2028 -
Christos Mandas Lazio Actif 147 / 149 40% 2 31.12.2027 -
James Trafford Leeds United Actif 153 / 147 40% 1 31.12.2027 -
Lukáš Horníček Burnley Actif 153 / 160 40% 1 31.12.2027 -
Maduka Okoye Udinese Actif 143 / 147 40% 3 12.07.2027 -
Mohamed Belloumi Hull City Actif 147 / 129 69% 1 12.07.2027 -
Giorgi Mamardashvili Liverpool Actif 158 / 171 40% 1 12.07.2027 -
Zion Suzuki Aston Villa Actif 142 / 139 40% 1 05.07.2027 -
Caleb Yirenkyi Coventry City Actif 141 / 145 40% 12 25.06.2027 -
Joseph Leclercq Tottenham Actif 151 / 163 40% 2 22.06.2027 -
Sascha Britschgi AC Milan Actif 116 / 125 40% 12 20.06.2027 -
Othmane Maamma Watford Actif 124 / 129 40% 5 18.06.2027 -
Kirill Glebov CSKA Moscow Actif 130 / 142 40% 3 14.06.2027 -
Franculino Brighton Actif 136 / 140 67% 1 01.06.2027 -
Gady Beyuku Blackburn Rovers Actif 110 / 114 40% 2 30.05.2027 -
Yehor Yarmoliuk Brentford Actif 149 / 156 40% 1 30.05.2027 -
Ollie Scarles West Ham United Actif 136 / 125 40% 16 28.05.2027 -
Savinho Tottenham Actif 152 / 158 40% 3 27.05.2027 -
Nico González Newcastle United Actif 158 / 161 40% 2 27.05.2027 Plus d'infos
Curtis Jones Inter Actif 155 / 150 40% 1 27.05.2027 -
Lucas Bergvall Tottenham Actif 141 / 152 40% 8 23.05.2027 -
Leo Castledine Middlesbrough Actif 128 / 130 40% 2 23.05.2027 -
Ezra Mayers West Ham United Actif 120 / 124 40% 4 21.05.2027 -
Gonçalo Oliveira Benfica Actif 107 / 110 40% 4 19.05.2027 -
Kevin Fulham Actif 149 / 141 40% 2 18.05.2027 -
Samuele di Benedetto Twente Actif 118 / 112 40% 3 12.05.2027 -
Bence Dárdai VfL Wolfsburg Actif 124 / 132 40% 3 11.05.2027 -
Eliás Montiel Borussia Dortmund Actif 130 / 136 40% 2 11.05.2027 -
Valentin Atangana Al-Ahli Actif 118 / 136 40% 6 10.05.2027 -
Enzo Koffi Olympique de Marseille Actif 112 / 118 40% 4 05.05.2027 -
Nestory Irankunda Watford Actif 119 / 127 40% 2 03.05.2027 -
Mohamadou Kanté Crawley Town Actif 113 / 118 40% 1 03.05.2027 -
Tiago Freitas Benfica Actif 107 / 107 40% 5 01.05.2027 -
Kevin Schade Chelsea Actif 155 / 156 40% 2 26.04.2027 -
Ethan Williams Peterborough United Actif 104 / 125 40% 4 26.04.2027 -
Moisés Caicedo Chelsea Actif 163 / 170 40% 2 26.04.2027 -
Callum Hudson-Odoi Nottingham Forest Actif 160 / 155 40% 1 26.04.2027 -
James Garner Everton Actif 150 / 156 40% 3 25.04.2027 -
Xavi Simons Tottenham Actif 165 / 152 40% 2 25.04.2027 -
Amadou Onana Aston Villa Actif 156 / 166 40% 1 20.04.2027 -
Alex Scott Bournemouth Actif 147 / 160 40% 1 18.04.2027 -
Manu Koné AS Roma Actif 171 / 155 40% 1 18.04.2027 -
Lewis Hall Newcastle United Actif 157 / 153 40% 1 03.04.2027 -
Cam Bragg West Ham United Actif 116 / 120 40% 5 31.03.2027 -
David Ozoh Derby County Actif 121 / 117 40% 6 30.03.2027 -
Mathys Tel Tottenham Actif 146 / 143 40% 3 29.03.2027 -
Kobbie Mainoo Manchester United Actif 154 / 150 40% 5 26.03.2027 -
Chemsdine Talbi Sunderland Actif 136 / 145 40% 5 24.03.2027 -
Sandro Tonali Tottenham Actif 172 / 173 40% 1 22.03.2027 -
Cemran Dansin Orlando Pirates Actif 119 / 113 40% 6 17.03.2027 -
Nico O'Reilly Manchester City Actif 153 / 152 40% 9 15.03.2027 -
Antoni Milambo Brentford Actif 136 / 143 40% 1 01.03.2027 -
Marco Palestra Everton Actif 132 / 133 40% 1 23.02.2027 -
Leandrinho Sharjah Actif 112 / 120 40% 2 16.02.2027 -
Simphiwe Selepe Orlando Pirates Actif 104 / 131 40% 3 09.02.2027 -
Malick Fofana Sunderland Actif 149 / 144 40% 1 06.02.2027 -
Mbekezeli Mbokazi Chicago Fire Actif 114 / 116 40% 1 01.02.2027 -
Heorhii Yermakov Metalist Actif 128 / 106 40% 1 27.01.2027 -
Evidence Makgopa Orlando Pirates Actif 115 / 128 40% 1 18.01.2027 -
Cody Gakpo Liverpool Actif 164 / 160 40% 10 30.12.2026 -
Bobby Clark Derby County Actif 114 / 136 40% 2 30.12.2026 -
Federico Chiesa Liverpool Actif 166 / 147 40% 13 28.12.2026 -
Morgan Rogers Chelsea Actif 157 / 151 40% 4 28.12.2026 -
João Pedro Chelsea Actif 141 / 147 40% 8 28.12.2026 -
Donyell Malen AS Roma Actif 157 / 150 40% 4 26.12.2026 -
Bryan Mbeumo Manchester United Actif 154 / 161 40% 8 24.12.2026 -
Antoine Semenyo Manchester City Actif 161 / 150 40% 7 23.12.2026 -
Jérémy Doku Manchester City Actif 170 / 174 40% 10 23.12.2026 -
Hugo Ekitiké Liverpool Actif 157 / 167 40% 8 21.12.2026 -
Lautaro Martínez Inter Actif 173 / 170 40% 5 21.12.2026 -
Viktor Gyökeres Arsenal Actif 152 / 158 40% 8 19.12.2026 -
Steven Bergwijn Al-Ittihad Actif 136 / 137 40% 3 19.12.2026 -
Giacomo Raspadori Atalanta Actif 155 / 148 40% 2 15.12.2026 -
Marcus Rashford Manchester United Actif 152 / 157 40% 11 13.12.2026 -
Jarrod Bowen West Ham United Actif 145 / 157 40% 2 12.12.2026 -
Iliman N'Diaye Everton Actif 160 / 154 40% 11 06.12.2026 Observer
Benjamin Šeško Manchester United Actif 151 / 147 40% 8 06.12.2026 -
Gonçalo Ramos AC Milan Actif 153 / 146 40% 3 04.12.2026 -
Rayan Cherki Manchester City Actif 166 / 166 40% 10 03.12.2026 Observer
Matheus Cunha Manchester United Actif 159 / 157 40% 8 30.11.2026 -
Ismaïla Sarr Crystal Palace Actif 140 / 140 40% 6 28.11.2026 -
Gabriel Martinelli Arsenal Actif 162 / 155 40% 6 26.11.2026 Observer
Christian Pulisic AC Milan Actif 161 / 168 40% 2 23.11.2026 -
Kai Havertz Arsenal Actif 152 / 153 40% 4 08.11.2026 -
Alexander Isak Liverpool Actif 177 / 179 40% 4 18.09.2026 -
Guilherme Houston Dynamo Actif 112 / 109 40% 1 01.08.2026 -
Talles Magno New York City Actif 134 / 118 40% 1 01.08.2026 -